sensor_id;sensor_type;location;lat;lon;timestamp;pressure;altitude;pressure_sealevel;temperature;humidity
48622;BME280;34421;48.944;9.460;2023-05-08T00:01:55;98747.88;;;16.68;81.19
48622;BME280;34421;48.944;9.460;2023-05-08T00:04:21;98747.88;;;16.68;81.37
48622;BME280;34421;48.944;9.460;2023-05-08T00:06:46;98744.38;;;16.68;81.17
48622;BME280;34421;48.944;9.460;2023-05-08T00:09:12;98749.75;;;16.68;80.75
48622;BME280;34421;48.944;9.460;2023-05-08T00:11:37;98760.50;;;16.68;81.58
48622;BME280;34421;48.944;9.460;2023-05-08T00:14:03;98752.13;;;16.64;81.75
48622;BME280;34421;48.944;9.460;2023-05-08T00:16:29;98753.91;;;16.58;81.53
48622;BME280;34421;48.944;9.460;2023-05-08T00:18:54;98755.19;;;16.56;81.62
48622;BME280;34421;48.944;9.460;2023-05-08T00:21:19;98751.09;;;16.53;82.05
48622;BME280;34421;48.944;9.460;2023-05-08T00:23:45;98755.34;;;16.49;82.08
48622;BME280;34421;48.944;9.460;2023-05-08T00:26:10;98748.34;;;16.48;81.96
48622;BME280;34421;48.944;9.460;2023-05-08T00:28:35;98761.22;;;16.46;82.09
48622;BME280;34421;48.944;9.460;2023-05-08T00:31:01;98756.63;;;16.47;82.18
48622;BME280;34421;48.944;9.460;2023-05-08T00:33:26;98762.81;;;16.47;82.22
48622;BME280;34421;48.944;9.460;2023-05-08T00:36:02;98758.03;;;16.49;81.73
48622;BME280;34421;48.944;9.460;2023-05-08T00:38:32;98761.78;;;16.48;81.35
48622;BME280;34421;48.944;9.460;2023-05-08T00:40:57;98764.47;;;16.48;82.04
48622;BME280;34421;48.944;9.460;2023-05-08T00:43:23;98757.44;;;16.47;81.88
48622;BME280;34421;48.944;9.460;2023-05-08T00:45:54;98747.78;;;16.46;81.29
48622;BME280;34421;48.944;9.460;2023-05-08T00:48:20;98755.84;;;16.46;81.25
48622;BME280;34421;48.944;9.460;2023-05-08T00:50:47;98757.13;;;16.44;81.46
48622;BME280;34421;48.944;9.460;2023-05-08T00:53:13;98761.69;;;16.43;81.52
48622;BME280;34421;48.944;9.460;2023-05-08T00:55:39;98751.44;;;16.40;81.82
48622;BME280;34421;48.944;9.460;2023-05-08T00:58:05;98761.03;;;16.36;81.14
48622;BME280;34421;48.944;9.460;2023-05-08T01:00:31;98758.81;;;16.33;81.59
48622;BME280;34421;48.944;9.460;2023-05-08T01:02:58;98758.25;;;16.31;81.78
48622;BME280;34421;48.944;9.460;2023-05-08T01:05:25;98762.81;;;16.30;81.28
48622;BME280;34421;48.944;9.460;2023-05-08T01:07:51;98759.28;;;16.30;81.36
48622;BME280;34421;48.944;9.460;2023-05-08T01:10:16;98758.47;;;16.29;81.11
48622;BME280;34421;48.944;9.460;2023-05-08T01:15:47;98762.44;;;16.27;82.11
48622;BME280;34421;48.944;9.460;2023-05-08T01:18:34;98761.91;;;16.25;81.81
48622;BME280;34421;48.944;9.460;2023-05-08T01:32:35;98763.22;;;16.10;82.40
48622;BME280;34421;48.944;9.460;2023-05-08T01:37:41;98771.88;;;16.12;82.58
48622;BME280;34421;48.944;9.460;2023-05-08T01:40:31;98766.50;;;16.12;83.06
48622;BME280;34421;48.944;9.460;2023-05-08T01:45:36;98776.41;;;16.12;83.18
48622;BME280;34421;48.944;9.460;2023-05-08T01:48:08;98771.88;;;16.12;83.63
48622;BME280;34421;48.944;9.460;2023-05-08T01:50:46;98781.28;;;16.15;83.46
48622;BME280;34421;48.944;9.460;2023-05-08T01:53:19;98778.38;;;16.16;83.76
48622;BME280;34421;48.944;9.460;2023-05-08T01:55:46;98786.44;;;16.16;82.96
48622;BME280;34421;48.944;9.460;2023-05-08T01:58:13;98786.44;;;16.16;83.79
48622;BME280;34421;48.944;9.460;2023-05-08T02:00:40;98796.72;;;16.20;83.25
48622;BME280;34421;48.944;9.460;2023-05-08T02:03:08;98796.72;;;16.20;84.08
48622;BME280;34421;48.944;9.460;2023-05-08T02:05:38;98801.84;;;16.21;83.18
48622;BME280;34421;48.944;9.460;2023-05-08T02:08:07;98798.91;;;16.23;82.87
48622;BME280;34421;48.944;9.460;2023-05-08T02:10:33;98801.03;;;16.21;82.90
48622;BME280;34421;48.944;9.460;2023-05-08T02:13:00;98799.72;;;16.23;83.38
48622;BME280;34421;48.944;9.460;2023-05-08T02:15:28;98798.44;;;16.26;83.52
48622;BME280;34421;48.944;9.460;2023-05-08T02:17:54;98800.06;;;16.27;83.36
48622;BME280;34421;48.944;9.460;2023-05-08T02:20:20;98799.03;;;16.28;82.97
48622;BME280;34421;48.944;9.460;2023-05-08T02:22:48;98797.16;;;16.28;83.00
48622;BME280;34421;48.944;9.460;2023-05-08T02:25:15;98790.97;;;16.28;83.05
48622;BME280;34421;48.944;9.460;2023-05-08T02:27:42;98800.66;;;16.29;82.66
48622;BME280;34421;48.944;9.460;2023-05-08T02:30:11;98792.59;;;16.29;82.63
48622;BME280;34421;48.944;9.460;2023-05-08T02:32:39;98795.28;;;16.29;83.11
48622;BME280;34421;48.944;9.460;2023-05-08T02:35:05;98794.69;;;16.27;82.56
48622;BME280;34421;48.944;9.460;2023-05-08T02:37:32;98805.44;;;16.27;82.53
48622;BME280;34421;48.944;9.460;2023-05-08T02:40:00;98803.81;;;16.26;82.72
48622;BME280;34421;48.944;9.460;2023-05-08T02:42:28;98798.44;;;16.26;82.94
48622;BME280;34421;48.944;9.460;2023-05-08T02:44:53;98792.25;;;16.25;83.12
48622;BME280;34421;48.944;9.460;2023-05-08T02:47:24;98803.81;;;16.26;83.34
48622;BME280;34421;48.944;9.460;2023-05-08T02:50:14;98803.81;;;16.26;83.08
48622;BME280;34421;48.944;9.460;2023-05-08T02:52:53;98801.13;;;16.26;82.64
48622;BME280;34421;48.944;9.460;2023-05-08T02:55:29;98798.91;;;16.23;82.54
48622;BME280;34421;48.944;9.460;2023-05-08T03:00:47;98807.22;;;16.21;82.64
48622;BME280;34421;48.944;9.460;2023-05-08T03:03:21;98807.22;;;16.21;83.19
48622;BME280;34421;48.944;9.460;2023-05-08T03:05:53;98797.53;;;16.20;83.11
48622;BME280;34421;48.944;9.460;2023-05-08T03:08:30;98800.22;;;16.20;83.43
48622;BME280;34421;48.944;9.460;2023-05-08T03:10:58;98791.81;;;16.16;82.87
48622;BME280;34421;48.944;9.460;2023-05-08T03:13:24;98790.41;;;16.14;83.22
48622;BME280;34421;48.944;9.460;2023-05-08T03:15:53;98794.97;;;16.13;83.75
48622;BME280;34421;48.944;9.460;2023-05-08T03:18:22;98787.72;;;16.14;83.11
48622;BME280;34421;48.944;9.460;2023-05-08T03:20:52;98788.00;;;16.12;83.42
48622;BME280;34421;48.944;9.460;2023-05-08T03:23:19;98780.41;;;16.09;83.87
48622;BME280;34421;48.944;9.460;2023-05-08T03:25:45;98788.47;;;16.09;83.57
48622;BME280;34421;48.944;9.460;2023-05-08T03:28:12;98791.97;;;16.10;83.62
48622;BME280;34421;48.944;9.460;2023-05-08T03:30:39;98795.47;;;16.10;83.51
48622;BME280;34421;48.944;9.460;2023-05-08T03:33:05;98794.41;;;16.11;84.01
48622;BME280;34421;48.944;9.460;2023-05-08T03:35:34;98790.56;;;16.07;83.30
48622;BME280;34421;48.944;9.460;2023-05-08T03:38:00;98793.00;;;16.09;84.05
48622;BME280;34421;48.944;9.460;2023-05-08T03:40:26;98791.72;;;16.11;83.83
48622;BME280;34421;48.944;9.460;2023-05-08T03:42:51;98793.34;;;16.12;83.58
48622;BME280;34421;48.944;9.460;2023-05-08T03:45:18;98799.28;;;16.14;83.02
48622;BME280;34421;48.944;9.460;2023-05-08T03:47:44;98797.06;;;16.11;82.90
48622;BME280;34421;48.944;9.460;2023-05-08T03:50:10;98789.50;;;16.08;83.67
48622;BME280;34421;48.944;9.460;2023-05-08T03:52:36;98795.94;;;16.07;83.31
48622;BME280;34421;48.944;9.460;2023-05-08T03:55:02;98797.56;;;16.08;83.30
48622;BME280;34421;48.944;9.460;2023-05-08T03:57:36;98801.31;;;16.07;83.50
48622;BME280;34421;48.944;9.460;2023-05-08T04:00:18;98802.94;;;16.08;83.53
48622;BME280;34421;48.944;9.460;2023-05-08T04:02:50;98796.53;;;16.09;83.63
48622;BME280;34421;48.944;9.460;2023-05-08T04:05:33;98802.72;;;16.10;83.20
48622;BME280;34421;48.944;9.460;2023-05-08T04:10:45;98800.81;;;16.10;83.79
48622;BME280;34421;48.944;9.460;2023-05-08T04:13:13;98804.31;;;16.11;83.51
48622;BME280;34421;48.944;9.460;2023-05-08T04:15:46;98808.63;;;16.12;83.62
48622;BME280;34421;48.944;9.460;2023-05-08T04:18:15;98809.94;;;16.09;84.10
48622;BME280;34421;48.944;9.460;2023-05-08T04:20:45;98823.38;;;16.09;83.44
48622;BME280;34421;48.944;9.460;2023-05-08T04:23:14;98815.31;;;16.09;83.87
48622;BME280;34421;48.944;9.460;2023-05-08T04:25:41;98818.56;;;16.11;83.77
48622;BME280;34421;48.944;9.460;2023-05-08T04:28:07;98817.53;;;16.12;83.45
48622;BME280;34421;48.944;9.460;2023-05-08T04:30:33;98814.38;;;16.15;83.65
48622;BME280;34421;48.944;9.460;2023-05-08T04:33:01;98824.63;;;16.18;83.70
48622;BME280;34421;48.944;9.460;2023-05-08T04:35:28;98826.25;;;16.20;84.07
48622;BME280;34421;48.944;9.460;2023-05-08T04:37:54;98824.16;;;16.22;83.60
48622;BME280;34421;48.944;9.460;2023-05-08T04:40:19;98831.75;;;16.25;83.16
48622;BME280;34421;48.944;9.460;2023-05-08T04:42:44;98826.94;;;16.27;83.19
48622;BME280;34421;48.944;9.460;2023-05-08T04:45:11;98831.81;;;16.30;82.84
48622;BME280;34421;48.944;9.460;2023-05-08T04:47:37;98831.59;;;16.31;83.21
48622;BME280;34421;48.944;9.460;2023-05-08T04:50:02;98837.56;;;16.33;83.08
48622;BME280;34421;48.944;9.460;2023-05-08T04:52:28;98834.63;;;16.35;82.60
48622;BME280;34421;48.944;9.460;2023-05-08T04:54:53;98844.06;;;16.37;82.92
48622;BME280;34421;48.944;9.460;2023-05-08T04:57:18;98841.16;;;16.39;82.66
48622;BME280;34421;48.944;9.460;2023-05-08T04:59:44;98844.41;;;16.41;82.70
48622;BME280;34421;48.944;9.460;2023-05-08T05:02:09;98846.88;;;16.43;82.96
48622;BME280;34421;48.944;9.460;2023-05-08T05:04:35;98849.31;;;16.44;82.93
48622;BME280;34421;48.944;9.460;2023-05-08T05:07:02;98854.69;;;16.44;83.13
48622;BME280;34421;48.944;9.460;2023-05-08T05:09:28;98856.34;;;16.45;82.59
48622;BME280;34421;48.944;9.460;2023-05-08T05:11:53;98852.31;;;16.48;82.77
48622;BME280;34421;48.944;9.460;2023-05-08T05:14:19;98851.03;;;16.50;82.63
48622;BME280;34421;48.944;9.460;2023-05-08T05:16:44;98851.03;;;16.50;82.59
48622;BME280;34421;48.944;9.460;2023-05-08T05:19:09;98857.00;;;16.52;82.37
48622;BME280;34421;48.944;9.460;2023-05-08T05:21:35;98857.00;;;16.52;82.59
48622;BME280;34421;48.944;9.460;2023-05-08T05:24:02;98855.44;;;16.56;82.61
48622;BME280;34421;48.944;9.460;2023-05-08T05:26:28;98863.88;;;16.60;82.73
48622;BME280;34421;48.944;9.460;2023-05-08T05:28:53;98862.06;;;16.66;82.41
48622;BME280;34421;48.944;9.460;2023-05-08T05:31:18;98861.97;;;16.72;82.14
48622;BME280;34421;48.944;9.460;2023-05-08T05:33:43;98860.22;;;16.78;82.60
48622;BME280;34421;48.944;9.460;2023-05-08T05:36:09;98865.44;;;16.84;81.90
48622;BME280;34421;48.944;9.460;2023-05-08T05:38:35;98860.97;;;16.90;81.41
48622;BME280;34421;48.944;9.460;2023-05-08T05:41:00;98865.94;;;16.98;81.30
48622;BME280;34421;48.944;9.460;2023-05-08T05:43:26;98862.53;;;17.03;81.67
48622;BME280;34421;48.944;9.460;2023-05-08T05:45:51;98866.44;;;17.12;81.12
48622;BME280;34421;48.944;9.460;2023-05-08T05:48:16;98866.28;;;17.19;81.20
48622;BME280;34421;48.944;9.460;2023-05-08T05:50:42;98867.19;;;17.24;80.76
48622;BME280;34421;48.944;9.460;2023-05-08T05:53:07;98870.19;;;17.28;80.39
48622;BME280;34421;48.944;9.460;2023-05-08T05:55:34;98874.63;;;17.34;80.39
48622;BME280;34421;48.944;9.460;2023-05-08T05:57:59;98869.31;;;17.39;80.05
48622;BME280;34421;48.944;9.460;2023-05-08T06:00:25;98869.13;;;17.46;79.91
48622;BME280;34421;48.944;9.460;2023-05-08T06:02:50;98871.69;;;17.52;79.39
48622;BME280;34421;48.944;9.460;2023-05-08T06:05:15;98877.13;;;17.58;79.34
48622;BME280;34421;48.944;9.460;2023-05-08T06:07:43;98879.69;;;17.64;79.13
48622;BME280;34421;48.944;9.460;2023-05-08T06:10:09;98876.53;;;17.72;78.94
48622;BME280;34421;48.944;9.460;2023-05-08T06:12:35;98871.84;;;17.80;78.44
48622;BME280;34421;48.944;9.460;2023-05-08T06:15:00;98873.78;;;17.84;78.12
48622;BME280;34421;48.944;9.460;2023-05-08T06:17:25;98874.44;;;17.91;78.08
48622;BME280;34421;48.944;9.460;2023-05-08T06:19:52;98872.28;;;17.93;78.30
48622;BME280;34421;48.944;9.460;2023-05-08T06:22:20;98878.03;;;17.97;78.47
48622;BME280;34421;48.944;9.460;2023-05-08T06:24:51;98876.72;;;17.99;78.46
48622;BME280;34421;48.944;9.460;2023-05-08T06:27:18;98889.03;;;17.95;78.24
48622;BME280;34421;48.944;9.460;2023-05-08T06:29:45;98884.72;;;17.94;78.43
48622;BME280;34421;48.944;9.460;2023-05-08T06:32:11;98882.75;;;17.90;78.24
48622;BME280;34421;48.944;9.460;2023-05-08T06:34:36;98879.50;;;17.88;78.05
48622;BME280;34421;48.944;9.460;2023-05-08T06:37:01;98879.25;;;17.89;78.32
48622;BME280;34421;48.944;9.460;2023-05-08T06:39:26;98879.66;;;17.98;77.47
48622;BME280;34421;48.944;9.460;2023-05-08T06:41:52;98877.91;;;18.09;77.47
48622;BME280;34421;48.944;9.460;2023-05-08T06:44:17;98882.13;;;18.21;77.02
48622;BME280;34421;48.944;9.460;2023-05-08T06:46:42;98881.81;;;18.40;76.80
48622;BME280;34421;48.944;9.460;2023-05-08T06:49:08;98877.97;;;18.58;75.73
48622;BME280;34421;48.944;9.460;2023-05-08T06:51:33;98884.13;;;18.75;75.54
48622;BME280;34421;48.944;9.460;2023-05-08T06:54:02;98881.78;;;18.84;74.87
48622;BME280;34421;48.944;9.460;2023-05-08T06:56:32;98875.22;;;19.02;74.51
48622;BME280;34421;48.944;9.460;2023-05-08T06:58:57;98875.66;;;19.21;74.16
48622;BME280;34421;48.944;9.460;2023-05-08T07:01:22;98871.75;;;19.39;72.82
48622;BME280;34421;48.944;9.460;2023-05-08T07:03:48;98873.59;;;19.65;72.26
48622;BME280;34421;48.944;9.460;2023-05-08T07:06:13;98871.09;;;19.91;70.97
48622;BME280;34421;48.944;9.460;2023-05-08T07:08:38;98873.38;;;20.19;69.89
48622;BME280;34421;48.944;9.460;2023-05-08T07:11:04;98877.28;;;20.44;68.16
48622;BME280;34421;48.944;9.460;2023-05-08T07:13:29;98875.78;;;20.68;68.23
48622;BME280;34421;48.944;9.460;2023-05-08T07:15:55;98878.78;;;20.87;66.41
48622;BME280;34421;48.944;9.460;2023-05-08T07:18:21;98882.88;;;20.95;66.29
48622;BME280;34421;48.944;9.460;2023-05-08T07:20:46;98886.38;;;21.06;65.45
48622;BME280;34421;48.944;9.460;2023-05-08T07:23:12;98890.44;;;21.08;64.42
48622;BME280;34421;48.944;9.460;2023-05-08T07:25:37;98893.97;;;21.09;64.43
48622;BME280;34421;48.944;9.460;2023-05-08T07:28:02;98883.13;;;20.99;64.43
48622;BME280;34421;48.944;9.460;2023-05-08T07:30:28;98894.50;;;20.85;63.96
48622;BME280;34421;48.944;9.460;2023-05-08T07:32:53;98886.84;;;20.67;63.66
48622;BME280;34421;48.944;9.460;2023-05-08T07:35:18;98895.97;;;20.51;64.45
48622;BME280;34421;48.944;9.460;2023-05-08T07:37:44;98893.19;;;20.40;64.54
48622;BME280;34421;48.944;9.460;2023-05-08T07:40:10;98897.53;;;20.36;65.01
48622;BME280;34421;48.944;9.460;2023-05-08T07:42:42;98896.97;;;20.29;65.88
48622;BME280;34421;48.944;9.460;2023-05-08T07:45:09;98896.66;;;20.25;65.70
48622;BME280;34421;48.944;9.460;2023-05-08T07:47:35;98896.09;;;20.18;66.19
48622;BME280;34421;48.944;9.460;2023-05-08T07:50:00;98900.66;;;20.13;66.08
48622;BME280;34421;48.944;9.460;2023-05-08T07:52:26;98909.81;;;20.07;66.48
48622;BME280;34421;48.944;9.460;2023-05-08T07:54:51;98909.44;;;19.93;66.81
48622;BME280;34421;48.944;9.460;2023-05-08T07:57:16;98910.81;;;19.90;66.66
48622;BME280;34421;48.944;9.460;2023-05-08T07:59:42;98910.25;;;19.88;67.24
48622;BME280;34421;48.944;9.460;2023-05-08T08:02:07;98905.41;;;19.90;67.14
48622;BME280;34421;48.944;9.460;2023-05-08T08:04:32;98905.13;;;19.92;67.73
48622;BME280;34421;48.944;9.460;2023-05-08T08:06:58;98907.31;;;19.95;67.39
48622;BME280;34421;48.944;9.460;2023-05-08T08:09:23;98912.19;;;19.98;67.13
48622;BME280;34421;48.944;9.460;2023-05-08T08:11:48;98912.75;;;20.00;67.13
48622;BME280;34421;48.944;9.460;2023-05-08T08:14:15;98911.13;;;20.04;66.73
48622;BME280;34421;48.944;9.460;2023-05-08T08:16:40;98910.63;;;20.07;66.81
48622;BME280;34421;48.944;9.460;2023-05-08T08:19:06;98913.59;;;20.11;66.93
48622;BME280;34421;48.944;9.460;2023-05-08T08:21:32;98907.94;;;20.12;67.62
48622;BME280;34421;48.944;9.460;2023-05-08T08:23:57;98909.56;;;20.08;66.79
48622;BME280;34421;48.944;9.460;2023-05-08T08:26:23;98912.28;;;20.13;66.52
48622;BME280;34421;48.944;9.460;2023-05-08T08:28:49;98917.78;;;20.34;66.13
48622;BME280;34421;48.944;9.460;2023-05-08T08:31:15;98909.75;;;20.44;65.73
48622;BME280;34421;48.944;9.460;2023-05-08T08:33:41;98922.25;;;20.60;65.64
48622;BME280;34421;48.944;9.460;2023-05-08T08:36:12;98925.56;;;20.67;65.54
48622;BME280;34421;48.944;9.460;2023-05-08T08:38:37;98922.31;;;20.76;65.12
48622;BME280;34421;48.944;9.460;2023-05-08T08:41:03;98916.69;;;20.82;64.97
48622;BME280;34421;48.944;9.460;2023-05-08T08:43:28;98923.97;;;20.87;65.15
48622;BME280;34421;48.944;9.460;2023-05-08T08:45:54;98921.00;;;20.83;64.52
48622;BME280;34421;48.944;9.460;2023-05-08T08:48:20;98914.25;;;20.86;64.68
48622;BME280;34421;48.944;9.460;2023-05-08T08:50:50;98921.28;;;20.92;64.81
48622;BME280;34421;48.944;9.460;2023-05-08T08:53:25;98922.66;;;21.00;64.03
48622;BME280;34421;48.944;9.460;2023-05-08T08:55:53;98920.53;;;21.12;64.20
48622;BME280;34421;48.944;9.460;2023-05-08T08:58:25;98919.19;;;21.25;63.71
48622;BME280;34421;48.944;9.460;2023-05-08T09:00:52;98920.03;;;21.41;62.75
48622;BME280;34421;48.944;9.460;2023-05-08T09:03:20;98915.97;;;21.53;62.58
48622;BME280;34421;48.944;9.460;2023-05-08T09:05:45;98914.09;;;21.69;62.72
48622;BME280;34421;48.944;9.460;2023-05-08T09:08:13;98921.09;;;21.91;61.97
48622;BME280;34421;48.944;9.460;2023-05-08T09:10:39;98914.31;;;21.98;62.16
48622;BME280;34421;48.944;9.460;2023-05-08T09:13:05;98907.75;;;22.15;61.74
48622;BME280;34421;48.944;9.460;2023-05-08T09:15:33;98920.22;;;22.31;59.64
48622;BME280;34421;48.944;9.460;2023-05-08T09:18:00;98921.56;;;22.39;59.80
48622;BME280;34421;48.944;9.460;2023-05-08T09:20:27;98913.69;;;22.37;58.84
48622;BME280;34421;48.944;9.460;2023-05-08T09:22:53;98919.41;;;22.36;60.47
48622;BME280;34421;48.944;9.460;2023-05-08T09:25:18;98922.66;;;22.33;60.33
48622;BME280;34421;48.944;9.460;2023-05-08T09:27:44;98923.75;;;22.26;61.17
48622;BME280;34421;48.944;9.460;2023-05-08T09:30:11;98916.13;;;22.34;61.35
48622;BME280;34421;48.944;9.460;2023-05-08T09:32:38;98919.06;;;22.52;60.53
48622;BME280;34421;48.944;9.460;2023-05-08T09:35:05;98922.97;;;22.86;60.25
48622;BME280;34421;48.944;9.460;2023-05-08T09:37:30;98916.94;;;23.04;60.00
48622;BME280;34421;48.944;9.460;2023-05-08T09:40:22;98926.53;;;23.31;59.57
48622;BME280;34421;48.944;9.460;2023-05-08T09:42:48;98925.63;;;23.40;58.49
48622;BME280;34421;48.944;9.460;2023-05-08T09:45:30;98913.94;;;23.45;58.29
48622;BME280;34421;48.944;9.460;2023-05-08T09:47:56;98922.47;;;23.62;58.17
48622;BME280;34421;48.944;9.460;2023-05-08T09:50:22;98917.09;;;23.92;57.50
48622;BME280;34421;48.944;9.460;2023-05-08T09:52:48;98911.38;;;24.17;57.09
48622;BME280;34421;48.944;9.460;2023-05-08T09:55:15;98922.03;;;24.14;57.21
48622;BME280;34421;48.944;9.460;2023-05-08T09:57:57;98915.88;;;24.03;56.99
48622;BME280;34421;48.944;9.460;2023-05-08T10:00:27;98916.53;;;23.95;56.86
48622;BME280;34421;48.944;9.460;2023-05-08T10:03:01;98913.06;;;23.84;56.97
48622;BME280;34421;48.944;9.460;2023-05-08T10:05:31;98909.13;;;23.71;57.24
48622;BME280;34421;48.944;9.460;2023-05-08T10:07:57;98911.72;;;23.81;56.87
48622;BME280;34421;48.944;9.460;2023-05-08T10:12:52;98912.16;;;23.94;53.96
48622;BME280;34421;48.944;9.460;2023-05-08T10:15:23;98910.25;;;23.94;54.05
48622;BME280;34421;48.944;9.460;2023-05-08T10:20:28;98920.84;;;23.96;52.94
48622;BME280;34421;48.944;9.460;2023-05-08T10:22:55;98915.78;;;23.84;53.37
48622;BME280;34421;48.944;9.460;2023-05-08T10:25:22;98920.44;;;23.83;53.44
48622;BME280;34421;48.944;9.460;2023-05-08T10:27:58;98916.41;;;23.76;52.94
48622;BME280;34421;48.944;9.460;2023-05-08T10:30:26;98915.09;;;23.68;53.35
48622;BME280;34421;48.944;9.460;2023-05-08T10:32:52;98918.44;;;23.60;53.42
48622;BME280;34421;48.944;9.460;2023-05-08T10:35:22;98915.53;;;23.46;53.74
48622;BME280;34421;48.944;9.460;2023-05-08T10:37:48;98911.59;;;23.28;54.46
48622;BME280;34421;48.944;9.460;2023-05-08T10:40:14;98910.34;;;23.15;55.47
48622;BME280;34421;48.944;9.460;2023-05-08T10:42:46;98916.03;;;23.14;55.07
48622;BME280;34421;48.944;9.460;2023-05-08T10:45:12;98912.56;;;23.08;55.18
48622;BME280;34421;48.944;9.460;2023-05-08T10:53:39;98915.53;;;23.12;55.65
48622;BME280;34421;48.944;9.460;2023-05-08T10:56:06;98913.84;;;23.21;55.42
48622;BME280;34421;48.944;9.460;2023-05-08T10:58:35;98907.81;;;23.29;55.27
48622;BME280;34421;48.944;9.460;2023-05-08T11:03:44;98909.50;;;23.54;54.32
48622;BME280;34421;48.944;9.460;2023-05-08T11:06:10;98906.59;;;23.46;53.94
48622;BME280;34421;48.944;9.460;2023-05-08T11:08:47;98906.59;;;23.46;53.98
48622;BME280;34421;48.944;9.460;2023-05-08T11:13:49;98905.94;;;23.25;54.50
48622;BME280;34421;48.944;9.460;2023-05-08T11:16:14;98909.06;;;23.03;54.89
48622;BME280;34421;48.944;9.460;2023-05-08T11:19:14;98909.41;;;22.81;54.33
48622;BME280;34421;48.944;9.460;2023-05-08T11:27:15;98910.69;;;23.04;54.30
48622;BME280;34421;48.944;9.460;2023-05-08T11:29:40;98907.13;;;23.08;54.65
48622;BME280;34421;48.944;9.460;2023-05-08T11:32:06;98897.97;;;22.94;54.40
48622;BME280;34421;48.944;9.460;2023-05-08T11:37:16;98908.00;;;22.98;54.82
48622;BME280;34421;48.944;9.460;2023-05-08T11:39:42;98904.16;;;23.05;55.04
48622;BME280;34421;48.944;9.460;2023-05-08T11:47:31;98898.56;;;22.11;56.66
48622;BME280;34421;48.944;9.460;2023-05-08T11:50:01;98902.91;;;22.06;56.31
48622;BME280;34421;48.944;9.460;2023-05-08T11:52:27;98900.19;;;22.06;56.91
48622;BME280;34421;48.944;9.460;2023-05-08T11:54:52;98899.66;;;22.20;56.23
48622;BME280;34421;48.944;9.460;2023-05-08T11:57:18;98899.53;;;22.45;56.83
48622;BME280;34421;48.944;9.460;2023-05-08T11:59:48;98892.13;;;22.66;55.90
48622;BME280;34421;48.944;9.460;2023-05-08T12:02:13;98887.47;;;22.72;55.53
48622;BME280;34421;48.944;9.460;2023-05-08T12:04:45;98885.25;;;22.84;55.03
48622;BME280;34421;48.944;9.460;2023-05-08T12:07:11;98887.34;;;23.03;54.86
48622;BME280;34421;48.944;9.460;2023-05-08T12:09:36;98894.84;;;23.16;54.75
48622;BME280;34421;48.944;9.460;2023-05-08T12:12:02;98895.81;;;23.35;54.44
48622;BME280;34421;48.944;9.460;2023-05-08T12:14:28;98897.25;;;23.57;53.55
48622;BME280;34421;48.944;9.460;2023-05-08T12:16:53;98891.97;;;23.71;53.60
48622;BME280;34421;48.944;9.460;2023-05-08T12:19:19;98896.75;;;23.84;53.07
48622;BME280;34421;48.944;9.460;2023-05-08T12:21:45;98893.06;;;23.99;53.18
48622;BME280;34421;48.944;9.460;2023-05-08T12:24:12;98896.91;;;23.98;51.93
48622;BME280;34421;48.944;9.460;2023-05-08T12:26:38;98895.00;;;23.98;51.62
48622;BME280;34421;48.944;9.460;2023-05-08T12:29:07;98907.66;;;24.08;50.89
48622;BME280;34421;48.944;9.460;2023-05-08T12:31:36;98903.25;;;24.12;51.29
48622;BME280;34421;48.944;9.460;2023-05-08T12:34:03;98891.13;;;24.28;50.72
48622;BME280;34421;48.944;9.460;2023-05-08T12:36:33;98895.47;;;24.53;50.07
48622;BME280;34421;48.944;9.460;2023-05-08T12:39:09;98897.63;;;24.75;50.00
48622;BME280;34421;48.944;9.460;2023-05-08T12:41:40;98903.09;;;24.75;50.00
48622;BME280;34421;48.944;9.460;2023-05-08T12:44:24;98893.09;;;24.90;49.72
48622;BME280;34421;48.944;9.460;2023-05-08T12:46:50;98902.50;;;24.78;48.52
48622;BME280;34421;48.944;9.460;2023-05-08T12:49:30;98904.03;;;24.85;48.76
48622;BME280;34421;48.944;9.460;2023-05-08T12:52:07;98893.94;;;25.04;48.37
48622;BME280;34421;48.944;9.460;2023-05-08T12:54:33;98891.16;;;25.09;48.53
48622;BME280;34421;48.944;9.460;2023-05-08T12:56:59;98895.88;;;25.04;48.91
48622;BME280;34421;48.944;9.460;2023-05-08T12:59:31;98893.88;;;25.09;48.19
48622;BME280;34421;48.944;9.460;2023-05-08T13:01:57;98897.84;;;24.98;48.21
48622;BME280;34421;48.944;9.460;2023-05-08T13:04:22;98897.41;;;24.91;48.49
48622;BME280;34421;48.944;9.460;2023-05-08T13:06:53;98892.94;;;24.81;48.25
48622;BME280;34421;48.944;9.460;2023-05-08T13:09:19;98883.28;;;24.70;48.30
48622;BME280;34421;48.944;9.460;2023-05-08T13:11:44;98881.84;;;24.53;48.60
48622;BME280;34421;48.944;9.460;2023-05-08T13:14:09;98877.34;;;24.44;49.13
48622;BME280;34421;48.944;9.460;2023-05-08T13:16:44;98885.53;;;24.39;49.08
48622;BME280;34421;48.944;9.460;2023-05-08T13:19:12;98878.72;;;24.17;49.23
48622;BME280;34421;48.944;9.460;2023-05-08T13:21:38;98881.28;;;24.08;49.21
48622;BME280;34421;48.944;9.460;2023-05-08T13:24:04;98878.78;;;24.12;48.70
48622;BME280;34421;48.944;9.460;2023-05-08T13:26:29;98877.97;;;24.11;49.06
48622;BME280;34421;48.944;9.460;2023-05-08T13:28:55;98874.09;;;23.94;49.15
48622;BME280;34421;48.944;9.460;2023-05-08T13:31:20;98869.38;;;23.75;49.37
48622;BME280;34421;48.944;9.460;2023-05-08T13:33:45;98867.44;;;23.81;49.84
48622;BME280;34421;48.944;9.460;2023-05-08T13:36:10;98870.88;;;23.92;50.05
48622;BME280;34421;48.944;9.460;2023-05-08T13:38:36;98874.56;;;24.01;49.73
48622;BME280;34421;48.944;9.460;2023-05-08T13:41:01;98865.53;;;24.05;49.24
48622;BME280;34421;48.944;9.460;2023-05-08T13:43:26;98852.56;;;23.97;49.68
48622;BME280;34421;48.944;9.460;2023-05-08T13:45:52;98865.75;;;23.85;50.05
48622;BME280;34421;48.944;9.460;2023-05-08T13:48:18;98855.16;;;23.83;50.55
48622;BME280;34421;48.944;9.460;2023-05-08T13:50:43;98860.56;;;23.88;49.53
48622;BME280;34421;48.944;9.460;2023-05-08T13:53:08;98857.31;;;23.86;49.90
48622;BME280;34421;48.944;9.460;2023-05-08T13:55:35;98848.53;;;23.95;50.38
48622;BME280;34421;48.944;9.460;2023-05-08T13:58:00;98846.88;;;23.94;50.23